Time;durP1;ratioP1;P1;durP2;ratioP2;P2;SDS_P1;SDS_P2;PMS_P1;PMS_P2;Temp;Humidity;BMP_temperature;BMP_pressure;BME280_temperature;BME280_humidity;BME280_pressure;Samples;Min_cycle;Max_cycle;Signal;HPM_P1;HPM_P2
2022/04/13 00:03:06;;;;;;;4.35;1.77;;;;;;;11.59;57.70;95801.56;10318960;28;98634;-69
2022/04/13 00:08:09;;;;;;;5.05;1.98;;;;;;;11.39;58.04;95800.25;10323727;28;99580;-69
2022/04/13 00:13:13;;;;;;;5.05;1.48;;;;;;;11.07;59.69;95793.97;10323628;28;98699;-69
2022/04/13 00:18:18;;;;;;;4.00;2.13;;;;;;;11.04;59.64;95791.72;10317743;28;99027;-69
2022/04/13 00:23:21;;;;;;;4.47;1.93;;;;;;;11.16;59.48;95787.81;10320262;28;96816;-69
2022/04/13 00:28:24;;;;;;;8.10;2.00;;;;;;;11.10;59.43;95785.81;10318772;28;97290;-69
2022/04/13 00:33:28;;;;;;;7.03;2.33;;;;;;;11.17;59.63;95781.56;10316318;28;98494;-69
2022/04/13 00:38:31;;;;;;;4.33;2.50;;;;;;;10.77;60.76;95775.31;10318995;28;98444;-69
2022/04/13 00:43:34;;;;;;;5.65;2.00;;;;;;;10.46;62.09;95783.75;10319479;28;98716;-69
2022/04/13 00:48:43;;;;;;;7.63;1.70;;;;;;;10.53;61.56;95783.91;10328699;28;96851;-69
2022/04/13 00:53:47;;;;;;;5.45;1.80;;;;;;;10.75;60.49;95782.50;10323879;28;97123;-69
2022/04/13 00:58:52;;;;;;;4.53;1.80;;;;;;;10.89;60.15;95776.66;10324294;28;98799;-69
2022/04/13 01:03:57;;;;;;;4.75;1.83;;;;;;;10.83;61.07;95774.69;10331322;28;97701;-69
2022/04/13 01:09:02;;;;;;;7.68;1.95;;;;;;;10.56;61.50;95768.75;10326308;28;97130;-69
2022/04/13 01:14:05;;;;;;;2.73;1.30;;;;;;;10.35;62.54;95778.81;10327437;28;96910;-69
2022/04/13 01:19:13;;;;;;;5.60;1.67;;;;;;;10.10;63.14;95781.31;10323216;28;97128;-69
2022/04/13 01:24:17;;;;;;;6.22;1.50;;;;;;;10.00;62.76;95778.00;10327766;28;97335;-69
2022/04/13 01:29:20;;;;;;;6.93;1.38;;;;;;;9.96;63.29;95777.50;10326847;28;98676;-69
2022/04/13 01:34:23;;;;;;;3.53;1.48;;;;;;;10.00;62.80;95770.16;10317836;28;96976;-69
2022/04/13 01:39:27;;;;;;;2.78;1.55;;;;;;;10.02;63.03;95771.63;10317947;28;97341;-69
2022/04/13 01:44:30;;;;;;;4.50;1.50;;;;;;;9.99;62.39;95769.34;10326265;28;97861;-69
2022/04/13 01:49:33;;;;;;;3.65;1.63;;;;;;;10.04;62.46;95774.94;10328698;28;101814;-69
2022/04/13 01:54:37;;;;;;;4.35;1.38;;;;;;;10.00;62.10;95770.97;10325019;28;97643;-69
2022/04/13 01:59:40;;;;;;;4.00;1.80;;;;;;;9.91;61.89;95771.09;10321179;28;97481;-69
2022/04/13 02:04:43;;;;;;;3.25;1.30;;;;;;;9.96;61.62;95761.84;10323022;28;98373;-69
2022/04/13 02:09:47;;;;;;;3.45;1.50;;;;;;;9.92;61.96;95760.50;10320925;28;97262;-69
2022/04/13 02:14:50;;;;;;;1.77;1.07;;;;;;;9.88;61.81;95763.59;10320129;28;96818;-69
2022/04/13 02:19:53;;;;;;;4.38;1.27;;;;;;;9.83;61.67;95764.03;10322209;28;99171;-69
2022/04/13 02:25:00;;;;;;;4.75;1.60;;;;;;;9.80;61.63;95757.34;10321352;28;98627;-69
2022/04/13 02:30:04;;;;;;;3.75;1.23;;;;;;;9.74;61.86;95755.34;10319352;28;98569;-69
2022/04/13 02:35:08;;;;;;;4.35;1.38;;;;;;;9.72;61.64;95759.91;10323112;28;98465;-69
2022/04/13 02:40:13;;;;;;;3.00;1.30;;;;;;;9.31;63.54;95756.97;10314037;28;98536;-69
2022/04/13 02:45:16;;;;;;;4.60;1.60;;;;;;;9.01;64.48;95760.84;10318598;28;97615;-69
2022/04/13 02:50:19;;;;;;;2.90;1.20;;;;;;;9.03;63.75;95754.47;10328074;28;96876;-69
2022/04/13 02:55:24;;;;;;;3.10;1.52;;;;;;;8.97;63.58;95767.28;10316627;28;99262;-69
2022/04/13 03:00:27;;;;;;;5.05;1.83;;;;;;;9.01;63.81;95761.63;10326847;28;98042;-69
2022/04/13 03:05:30;;;;;;;4.00;1.80;;;;;;;9.08;63.20;95767.88;10326376;28;97755;-69
2022/04/13 03:10:34;;;;;;;5.53;1.98;;;;;;;9.08;63.22;95770.50;10325730;28;97700;-69
2022/04/13 03:15:37;;;;;;;3.90;1.80;;;;;;;9.05;63.84;95772.56;10320810;28;97783;-69
2022/04/13 03:20:40;;;;;;;4.90;1.73;;;;;;;8.90;64.28;95772.31;10323405;28;99282;-69
2022/04/13 03:25:44;;;;;;;5.63;2.10;;;;;;;8.49;65.90;95777.09;10323155;28;98429;-69
2022/04/13 03:30:47;;;;;;;2.93;1.70;;;;;;;8.32;66.04;95782.09;10323308;28;98483;-69
2022/04/13 03:35:50;;;;;;;3.55;1.52;;;;;;;8.27;65.84;95788.69;10315601;28;98861;-69
2022/04/13 03:40:54;;;;;;;3.72;1.52;;;;;;;8.22;66.29;95786.56;10320865;28;98810;-69
2022/04/13 03:45:57;;;;;;;5.03;1.33;;;;;;;8.22;65.70;95785.72;10319250;28;98760;-69
2022/04/13 03:51:00;;;;;;;4.53;1.92;;;;;;;8.10;66.06;95792.88;10321116;28;100475;-69
2022/04/13 03:56:05;;;;;;;2.47;1.58;;;;;;;8.07;66.08;95785.38;10319170;28;98435;-69
2022/04/13 04:01:08;;;;;;;7.15;1.85;;;;;;;8.06;66.11;95791.53;10320830;28;97942;-69
2022/04/13 04:06:11;;;;;;;7.47;1.77;;;;;;;7.92;66.35;95793.63;10316659;28;97896;-69
2022/04/13 04:11:15;;;;;;;4.50;1.50;;;;;;;7.98;65.94;95790.47;10323153;28;98574;-69
2022/04/13 04:16:18;;;;;;;7.90;1.63;;;;;;;8.06;64.79;95796.75;10316613;28;98680;-69
2022/04/13 04:21:21;;;;;;;5.00;1.60;;;;;;;8.00;65.33;95802.53;10319933;28;97227;-69
2022/04/13 04:26:25;;;;;;;4.90;1.73;;;;;;;7.93;65.06;95803.09;10325174;28;98760;-69
2022/04/13 04:36:45;;;;;;;3.80;1.58;;;;;;;7.72;65.98;95820.69;10313148;28;97553;-69
2022/04/13 04:41:49;;;;;;;6.32;1.83;;;;;;;7.63;67.03;95826.69;10312610;28;98572;-69
2022/04/13 04:46:52;;;;;;;4.95;1.40;;;;;;;7.46;67.19;95826.47;10313963;28;98911;-68
2022/04/13 04:51:55;;;;;;;2.35;1.30;;;;;;;7.51;67.02;95829.47;10327786;28;97769;-69
2022/04/13 04:56:59;;;;;;;3.65;1.70;;;;;;;7.60;66.55;95833.81;10317694;28;98453;-69
2022/04/13 05:02:02;;;;;;;2.38;1.30;;;;;;;7.50;66.64;95848.59;10322309;28;97602;-69
2022/04/13 05:07:07;;;;;;;3.63;1.30;;;;;;;7.40;67.02;95852.97;10316537;28;98176;-69
2022/04/13 05:12:11;;;;;;;3.45;1.15;;;;;;;7.38;67.20;95865.31;10316164;28;96820;-69
2022/04/13 05:17:15;;;;;;;3.10;1.30;;;;;;;7.21;67.27;95869.38;10320049;28;98556;-69
2022/04/13 05:22:17;;;;;;;2.97;1.55;;;;;;;7.18;67.64;95890.44;10319040;28;97026;-69
2022/04/13 05:27:22;;;;;;;2.28;1.30;;;;;;;7.23;67.00;95898.66;10319916;28;98649;-69
2022/04/13 05:32:25;;;;;;;5.28;1.58;;;;;;;7.36;66.96;95890.59;10318770;28;97602;-69
2022/04/13 05:37:28;;;;;;;4.70;1.48;;;;;;;7.34;67.18;95911.53;10322225;28;98982;-69
2022/04/13 05:42:32;;;;;;;3.65;1.50;;;;;;;7.46;66.97;95909.63;10323419;28;97260;-69
2022/04/13 05:47:35;;;;;;;3.90;1.37;;;;;;;7.71;66.33;95902.22;10314815;28;97020;-69
2022/04/13 05:52:39;;;;;;;4.45;1.60;;;;;;;7.86;66.18;95916.44;10311731;28;98312;-69
2022/04/13 05:57:43;;;;;;;6.95;1.95;;;;;;;7.75;66.88;95911.38;10312596;28;100387;-69
2022/04/13 06:02:47;;;;;;;7.80;2.10;;;;;;;7.91;66.37;95913.41;10314615;28;96782;-69
2022/04/13 06:07:50;;;;;;;11.25;2.15;;;;;;;8.12;66.42;95923.66;10314124;28;96695;-69
2022/04/13 06:12:54;;;;;;;16.35;3.15;;;;;;;8.33;66.67;95929.50;10320847;28;96678;-69
2022/04/13 06:17:58;;;;;;;16.33;2.47;;;;;;;8.60;65.78;95933.09;10326374;28;97421;-69
2022/04/13 06:23:01;;;;;;;15.43;2.90;;;;;;;8.67;66.33;95935.94;10324228;28;98270;-69
2022/04/13 06:28:07;;;;;;;14.65;2.95;;;;;;;8.75;66.95;95935.25;10325320;28;96890;-70
2022/04/13 06:33:09;;;;;;;12.77;2.50;;;;;;;8.89;67.22;95945.19;10315470;28;97761;-69
2022/04/13 06:38:12;;;;;;;12.80;2.45;;;;;;;9.35;65.06;95939.97;10306611;28;96787;-69
2022/04/13 06:43:16;;;;;;;9.43;2.50;;;;;;;9.69;64.54;95948.00;10309743;28;96999;-69
2022/04/13 06:48:21;;;;;;;12.77;2.40;;;;;;;10.15;64.04;95948.72;10306171;28;98013;-69
2022/04/13 06:53:24;;;;;;;7.47;2.27;;;;;;;10.51;62.71;95943.41;10304722;28;96975;-70
2022/04/13 06:58:28;;;;;;;7.72;2.05;;;;;;;10.73;62.22;95938.59;10307703;28;96738;-69
2022/04/13 07:03:31;;;;;;;4.80;2.80;;;;;;;10.92;61.86;95950.63;10307707;28;97250;-69
2022/04/13 07:08:35;;;;;;;10.15;2.97;;;;;;;11.04;61.75;95959.00;10302001;28;97333;-70
2022/04/13 07:13:39;;;;;;;8.38;3.85;;;;;;;11.18;61.19;95955.78;10317993;28;97772;-69
2022/04/13 07:18:42;;;;;;;8.33;4.43;;;;;;;11.33;61.41;95954.22;10340846;28;96954;-69
2022/04/13 07:23:45;;;;;;;8.32;4.40;;;;;;;11.49;60.67;95961.28;10338787;28;97409;-69
2022/04/13 07:28:54;;;;;;;14.13;5.88;;;;;;;11.64;60.48;95956.25;10341490;28;96779;-69
2022/04/13 07:33:57;;;;;;;9.77;5.22;;;;;;;11.83;59.76;95956.94;10340087;28;96865;-69
2022/04/13 07:39:01;;;;;;;10.65;5.60;;;;;;;11.97;59.19;95963.31;10336179;28;97042;-69
2022/04/13 07:44:07;;;;;;;12.35;5.07;;;;;;;12.12;59.20;95959.06;10335189;28;97064;-70
2022/04/13 07:49:10;;;;;;;5.75;2.72;;;;;;;12.31;58.54;95963.16;10339898;28;96818;-69
2022/04/13 07:54:13;;;;;;;8.90;2.65;;;;;;;12.54;57.97;95952.78;10336050;28;96710;-69
2022/04/13 07:59:37;;;;;;;10.27;2.58;;;;;;;12.83;57.71;95952.22;10321559;28;96825;-69
2022/04/13 08:04:41;;;;;;;6.17;2.30;;;;;;;13.11;57.01;95954.44;10340032;28;96903;-70
2022/04/13 08:09:44;;;;;;;7.55;3.30;;;;;;;13.30;57.13;95952.41;10338859;28;97041;-69
2022/04/13 08:14:49;;;;;;;8.43;3.20;;;;;;;13.52;56.06;95962.13;10336161;28;99646;-69
2022/04/13 08:19:52;;;;;;;6.03;2.78;;;;;;;13.73;55.86;95956.25;10340753;28;96723;-69
2022/04/13 08:24:56;;;;;;;9.02;2.88;;;;;;;13.84;55.73;95955.03;10338158;28;97042;-69
2022/04/13 08:30:00;;;;;;;5.65;2.63;;;;;;;14.08;55.81;95961.09;10334093;28;97805;-69
2022/04/13 08:35:05;;;;;;;9.10;2.72;;;;;;;14.32;55.07;95958.28;10333800;28;97812;-69
2022/04/13 08:40:09;;;;;;;5.45;2.70;;;;;;;14.63;53.99;95959.97;10339746;28;96747;-69
2022/04/13 08:45:22;;;;;;;5.70;2.88;;;;;;;14.83;53.75;95976.03;10336045;28;96718;-69
2022/04/13 08:50:28;;;;;;;9.50;3.33;;;;;;;14.91;53.95;95977.78;10337441;28;96953;-69
2022/04/13 08:55:32;;;;;;;9.10;3.10;;;;;;;15.10;53.50;95974.59;10339769;28;97806;-69
2022/04/13 09:00:41;;;;;;;8.37;2.73;;;;;;;15.27;52.84;95983.13;10338059;28;96863;-70
2022/04/13 09:05:47;;;;;;;5.35;2.80;;;;;;;15.39;52.85;95990.53;10336697;28;96968;-69
2022/04/13 09:10:52;;;;;;;9.35;3.13;;;;;;;15.45;52.39;95985.34;10346800;28;97522;-70
2022/04/13 09:15:58;;;;;;;6.93;3.53;;;;;;;15.56;53.35;95991.13;10344482;28;96939;-69
2022/04/13 09:21:02;;;;;;;8.70;3.70;;;;;;;15.67;52.42;95988.06;10341366;28;99665;-69
2022/04/13 09:26:05;;;;;;;7.90;3.87;;;;;;;15.79;52.49;95999.75;10347261;28;96893;-70
2022/04/13 09:31:09;;;;;;;9.23;3.53;;;;;;;15.95;52.04;95992.63;10343594;28;97051;-69
2022/04/13 09:36:12;;;;;;;5.22;2.90;;;;;;;16.03;51.33;95997.75;10341270;28;97147;-69
2022/04/13 09:41:16;;;;;;;10.27;3.75;;;;;;;16.15;51.00;95990.16;10343995;28;96865;-69
2022/04/13 09:46:29;;;;;;;10.25;3.78;;;;;;;16.24;50.62;95997.75;10343688;28;97322;-69
2022/04/13 09:51:36;;;;;;;6.85;2.72;;;;;;;16.35;50.98;95995.63;10343043;28;96717;-69
2022/04/13 09:56:44;;;;;;;7.22;2.72;;;;;;;16.53;50.47;95982.78;10324243;28;96810;-69
2022/04/13 10:01:48;;;;;;;6.25;2.50;;;;;;;16.74;50.16;95984.53;10344688;28;97465;-69
2022/04/13 10:06:52;;;;;;;7.00;2.67;;;;;;;16.92;49.80;95975.34;10342703;28;96942;-69
2022/04/13 10:11:59;;;;;;;5.10;2.33;;;;;;;17.04;48.06;95967.72;10339206;28;96873;-69
2022/04/13 10:17:12;;;;;;;5.20;2.22;;;;;;;17.20;48.13;95967.41;10338087;28;97676;-69
2022/04/13 10:22:14;;;;;;;7.20;2.72;;;;;;;17.40;47.50;95958.75;10341829;28;97010;-69
2022/04/13 10:27:19;;;;;;;8.25;2.60;;;;;;;17.59;46.50;95947.44;10340474;28;96977;-69
2022/04/13 10:32:26;;;;;;;7.30;2.30;;;;;;;17.82;45.85;95949.75;10342226;28;99891;-69
2022/04/13 10:37:29;;;;;;;7.80;1.77;;;;;;;18.04;45.76;95939.81;10343221;28;96861;-69
2022/04/13 10:42:35;;;;;;;8.65;2.20;;;;;;;18.23;44.27;95940.06;10341644;28;97184;-70
2022/04/13 10:47:49;;;;;;;5.25;2.20;;;;;;;18.31;43.82;95931.94;10323766;28;96884;-69
2022/04/13 10:52:58;;;;;;;5.75;2.63;;;;;;;18.33;43.18;95919.31;10343157;28;96745;-69
2022/04/13 10:58:06;;;;;;;4.00;1.65;;;;;;;18.61;42.66;95926.19;10341087;28;99708;-69
2022/04/13 11:03:12;;;;;;;5.80;1.83;;;;;;;18.62;41.04;95927.81;10337237;28;96761;-70
2022/04/13 11:08:25;;;;;;;5.97;1.50;;;;;;;18.50;40.29;95925.81;10342610;28;96916;-70
2022/04/13 11:13:31;;;;;;;;;;;;;;;18.83;41.09;95909.06;10341540;28;96766;-70
2022/04/13 11:18:35;;;;;;;4.93;1.50;;;;;;;19.18;40.80;95902.66;10342390;28;96723;-70
2022/04/13 11:23:52;;;;;;;3.80;1.40;;;;;;;19.51;40.14;95901.72;10337709;28;96908;-69
2022/04/13 11:29:16;;;;;;;3.67;1.42;;;;;;;19.68;39.21;95907.28;10341984;28;96929;-70
2022/04/13 11:34:28;;;;;;;4.65;1.50;;;;;;;19.71;37.86;95906.88;10339963;28;101441;-69
2022/04/13 11:39:53;;;;;;;4.32;1.52;;;;;;;19.87;37.05;95903.75;10340234;28;97058;-70
2022/04/13 11:45:02;;;;;;;3.05;1.40;;;;;;;20.00;37.25;95897.53;10320719;28;97436;-69
2022/04/13 11:50:22;;;;;;;4.28;1.67;;;;;;;20.17;37.08;95900.47;10334855;28;97778;-70
2022/04/13 11:55:27;;;;;;;4.68;1.80;;;;;;;20.28;38.20;95910.38;10341022;28;98774;-70
2022/04/13 12:00:37;;;;;;;4.75;1.80;;;;;;;20.33;37.96;95902.56;10339387;28;96729;-70
2022/04/13 12:05:43;;;;;;;5.13;1.80;;;;;;;20.42;37.69;95899.66;10322313;28;97512;-70
2022/04/13 12:10:47;;;;;;;6.30;1.70;;;;;;;20.50;37.88;95886.91;10342658;28;97207;-70
2022/04/13 12:15:52;;;;;;;5.80;1.48;;;;;;;20.50;37.78;95897.53;10338090;28;96828;-69
2022/04/13 12:21:08;;;;;;;4.75;1.60;;;;;;;20.65;37.15;95893.72;10335100;28;98116;-70
2022/04/13 12:26:12;;;;;;;5.28;1.45;;;;;;;20.82;36.98;95896.63;10334468;28;96974;-70
2022/04/13 12:31:15;;;;;;;2.85;1.38;;;;;;;20.89;36.70;95900.03;10338529;28;97146;-70
2022/04/13 12:36:20;;;;;;;6.55;1.60;;;;;;;20.99;36.77;95904.84;10337408;28;96856;-70
2022/04/13 12:41:24;;;;;;;4.18;1.40;;;;;;;21.08;37.00;95904.31;10342632;28;96922;-69
2022/04/13 12:46:29;;;;;;;3.42;1.35;;;;;;;21.26;36.86;95897.38;10345548;28;97161;-69
2022/04/13 12:51:35;;;;;;;3.80;1.10;;;;;;;21.28;35.95;95892.66;10345298;28;96788;-70
2022/04/13 12:56:39;;;;;;;4.80;1.67;;;;;;;21.22;35.83;95893.53;10326483;28;96876;-70
2022/04/13 13:01:47;;;;;;;5.13;1.63;;;;;;;21.27;36.33;95885.69;10345896;28;96802;-70
2022/04/13 13:06:56;;;;;;;3.67;1.70;;;;;;;21.31;35.94;95870.94;10344571;28;98642;-70
2022/04/13 13:12:01;;;;;;;5.18;1.50;;;;;;;21.34;36.21;95872.34;10341632;28;96838;-70
2022/04/13 13:17:18;;;;;;;3.97;1.48;;;;;;;21.40;35.77;95882.88;10339400;28;97260;-70
2022/04/13 13:22:24;;;;;;;5.80;1.80;;;;;;;21.39;35.48;95873.28;10343548;28;96936;-69
2022/04/13 13:27:29;;;;;;;5.65;1.60;;;;;;;20.87;34.98;95870.25;10343358;28;96731;-70
2022/04/13 13:32:36;;;;;;;3.85;1.88;;;;;;;20.57;34.93;95861.13;10342398;28;97206;-70
2022/04/13 13:37:42;;;;;;;6.28;1.50;;;;;;;20.88;34.98;95861.25;10344602;28;96821;-70
2022/04/13 13:42:45;;;;;;;5.03;1.92;;;;;;;21.22;34.53;95857.13;10344044;28;96945;-70
2022/04/13 13:47:48;;;;;;;5.07;1.50;;;;;;;21.45;33.95;95851.13;10340786;28;96838;-70
2022/04/13 13:52:52;;;;;;;6.65;1.98;;;;;;;21.42;33.59;95856.09;10346173;28;96779;-70
2022/04/13 13:57:56;;;;;;;;;;;;;;;21.54;34.38;95850.81;10343759;28;96869;-70
2022/04/13 14:02:59;;;;;;;3.70;1.30;;;;;;;21.71;33.44;95843.84;10338696;28;98058;-70
2022/04/13 14:08:06;;;;;;;7.40;1.60;;;;;;;21.86;33.56;95841.53;10346372;28;96989;-70
2022/04/13 14:13:12;;;;;;;4.53;1.38;;;;;;;22.09;33.47;95845.28;10342519;28;96752;-70
2022/04/13 14:18:15;;;;;;;3.67;1.50;;;;;;;22.18;33.35;95843.09;10340074;28;96954;-70
2022/04/13 14:23:19;;;;;;;3.15;1.40;;;;;;;22.36;32.64;95839.53;10343278;28;96867;-70
2022/04/13 14:28:22;;;;;;;3.13;1.55;;;;;;;22.47;33.07;95841.38;10341840;28;96955;-70
2022/04/13 14:33:26;;;;;;;3.47;1.13;;;;;;;22.55;33.36;95848.22;10342846;28;96881;-70
2022/04/13 14:38:31;;;;;;;2.67;1.20;;;;;;;22.53;33.18;95845.78;10341942;28;97276;-70
2022/04/13 14:43:34;;;;;;;2.80;1.40;;;;;;;22.42;32.72;95843.91;10342276;28;96942;-70
2022/04/13 14:48:37;;;;;;;7.35;1.58;;;;;;;22.28;32.92;95847.84;10340757;28;96920;-70
2022/04/13 14:53:42;;;;;;;2.28;1.08;;;;;;;22.34;33.56;95846.94;10339227;28;98634;-70
2022/04/13 14:58:45;;;;;;;4.78;1.50;;;;;;;22.33;33.25;95845.31;10342377;28;96934;-70
2022/04/13 15:03:49;;;;;;;3.92;1.40;;;;;;;22.28;32.99;95851.31;10338080;28;96783;-70
2022/04/13 15:08:54;;;;;;;3.22;1.20;;;;;;;22.18;33.20;95846.56;10338038;28;96981;-70
2022/04/13 15:13:57;;;;;;;3.90;1.33;;;;;;;21.95;33.45;95849.19;10343718;28;96875;-70
2022/04/13 15:19:01;;;;;;;4.47;1.70;;;;;;;21.86;33.47;95851.38;10340813;28;97005;-70
2022/04/13 15:24:07;;;;;;;7.07;1.70;;;;;;;21.90;33.03;95847.25;10336351;28;96937;-70
2022/04/13 15:29:10;;;;;;;3.95;1.45;;;;;;;21.92;33.13;95852.31;10342329;28;96876;-70
2022/04/13 15:34:12;;;;;;;6.15;1.77;;;;;;;21.95;32.88;95851.84;10339711;28;96793;-70
2022/04/13 15:39:17;;;;;;;2.90;1.35;;;;;;;22.11;33.14;95853.88;10337173;28;96886;-70
2022/04/13 15:44:20;;;;;;;4.90;1.30;;;;;;;22.26;32.51;95861.38;10340468;28;96936;-70
2022/04/13 15:49:24;;;;;;;5.07;1.60;;;;;;;22.42;31.96;95849.22;10341049;28;96981;-70
2022/04/13 15:54:28;;;;;;;3.42;1.30;;;;;;;22.56;31.48;95855.16;10338558;28;99604;-70
2022/04/13 15:59:31;;;;;;;3.75;1.05;;;;;;;22.65;31.36;95860.94;10337681;28;96809;-70
2022/04/13 16:04:34;;;;;;;4.93;1.40;;;;;;;22.78;31.25;95868.69;10340037;28;97129;-70
2022/04/13 16:09:39;;;;;;;5.47;1.40;;;;;;;22.91;31.22;95879.09;10338669;28;97210;-70
2022/04/13 16:14:42;;;;;;;4.10;1.48;;;;;;;22.87;33.34;95872.59;10336373;28;96999;-70
2022/04/13 16:19:44;;;;;;;3.42;1.40;;;;;;;23.10;32.97;95881.56;10339831;28;97572;-70
2022/04/13 16:24:50;;;;;;;4.50;1.40;;;;;;;22.90;33.33;95896.09;10337470;28;100452;-70
2022/04/13 16:29:54;;;;;;;5.28;2.10;;;;;;;22.30;33.83;95894.47;10333456;28;97849;-71
2022/04/13 16:34:57;;;;;;;5.32;1.60;;;;;;;21.75;34.55;95892.84;10318390;28;97382;-63
2022/04/13 16:40:02;;;;;;;6.83;1.60;;;;;;;21.09;36.07;95884.69;10314923;28;97952;-64
2022/04/13 16:45:07;;;;;;;4.35;1.77;;;;;;;20.65;36.52;95875.97;10325196;28;97259;-62
2022/04/13 16:50:09;;;;;;;;;;;;;;;20.55;36.29;95879.13;10323079;28;97954;-63
2022/04/13 16:55:14;;;;;;;3.58;1.55;;;;;;;20.49;37.27;95906.50;10323556;28;97743;-61
2022/04/13 17:00:19;;;;;;;7.13;1.70;;;;;;;20.49;36.79;95900.41;10323868;28;98886;-61
2022/04/13 17:05:21;;;;;;;3.08;1.42;;;;;;;20.46;36.88;95895.53;10312944;28;97023;-61
2022/04/13 17:10:26;;;;;;;5.90;1.67;;;;;;;20.08;36.82;95894.63;10312309;28;96929;-62
2022/04/13 17:15:29;;;;;;;;;;;;;;;19.79;37.59;95910.09;10319682;28;98370;-61
2022/04/13 17:20:32;;;;;;;5.32;1.77;;;;;;;19.56;37.81;95897.38;10317380;28;97598;-63
2022/04/13 17:25:36;;;;;;;6.43;1.95;;;;;;;19.11;39.52;95904.53;10327815;28;101956;-68
2022/04/13 17:30:39;;;;;;;;;;;;;;;18.83;39.77;95903.78;10321554;28;97648;-68
2022/04/13 17:35:43;;;;;;;6.20;1.90;;;;;;;18.59;39.72;95907.09;10332656;28;97305;-68
2022/04/13 17:40:47;;;;;;;4.50;1.77;;;;;;;18.65;39.43;95914.19;10322217;28;96966;-68
2022/04/13 17:45:50;;;;;;;8.15;3.42;;;;;;;18.80;40.02;95919.25;10324583;28;96759;-70
2022/04/13 17:50:53;;;;;;;24.33;13.52;;;;;;;18.66;40.17;95926.41;10331118;28;96811;-68
2022/04/13 17:55:57;;;;;;;13.70;9.20;;;;;;;18.56;39.31;95918.88;10334257;28;96972;-69
2022/04/13 18:01:01;;;;;;;6.65;1.92;;;;;;;18.45;39.91;95928.25;10328774;28;103272;-67
2022/04/13 18:06:04;;;;;;;;;;;;;;;18.03;40.43;95930.28;10321280;28;97024;-68
2022/04/13 18:11:09;;;;;;;4.85;2.13;;;;;;;17.75;41.33;95933.88;10339506;28;96915;-68
2022/04/13 18:16:12;;;;;;;4.25;1.48;;;;;;;17.50;41.29;95948.63;10322128;28;97000;-68
2022/04/13 18:21:15;;;;;;;4.70;1.73;;;;;;;17.25;42.18;95948.31;10326950;28;102976;-68
2022/04/13 18:26:20;;;;;;;8.63;3.03;;;;;;;17.17;41.94;95951.94;10331911;28;98016;-67
2022/04/13 18:31:23;;;;;;;12.60;7.35;;;;;;;17.09;41.77;95955.59;10316852;28;100539;-66
2022/04/13 18:36:26;;;;;;;6.25;2.75;;;;;;;17.15;42.00;95956.63;10330424;28;98368;-66
2022/04/13 18:41:32;;;;;;;3.55;1.52;;;;;;;17.07;42.18;95959.41;10333846;28;96793;-65
2022/04/13 18:46:36;;;;;;;7.00;3.95;;;;;;;16.89;42.64;95966.00;10335337;28;97652;-66
2022/04/13 18:51:39;;;;;;;10.32;4.22;;;;;;;16.82;42.90;95965.16;10330566;28;96848;-65
2022/04/13 18:56:44;;;;;;;6.38;2.90;;;;;;;16.78;42.80;95979.75;10316390;28;96985;-66
2022/04/13 19:01:54;;;;;;;10.07;4.75;;;;;;;16.78;43.03;95990.31;10329236;28;96826;-65
2022/04/13 19:07:00;;;;;;;9.07;2.83;;;;;;;16.63;43.22;95993.81;10318268;28;97567;-66
2022/04/13 19:12:05;;;;;;;4.22;2.00;;;;;;;16.47;43.02;95999.38;10315510;28;97372;-66
2022/04/13 19:17:08;;;;;;;8.55;2.10;;;;;;;16.35;43.74;95995.63;10334463;28;97342;-66
2022/04/13 19:22:11;;;;;;;6.78;2.63;;;;;;;16.15;43.35;96005.97;10318236;28;98483;-65
2022/04/13 19:27:15;;;;;;;4.90;1.88;;;;;;;15.98;43.77;96010.66;10319508;28;97162;-66
2022/04/13 19:32:20;;;;;;;6.85;2.65;;;;;;;15.92;43.87;96021.97;10326413;28;96920;-66
2022/04/13 19:37:23;;;;;;;6.70;3.00;;;;;;;15.72;44.66;96021.72;10325762;28;97258;-66
2022/04/13 19:42:29;;;;;;;8.32;1.98;;;;;;;15.57;45.08;96032.28;10316711;28;96920;-65
2022/04/13 19:47:32;;;;;;;5.97;2.25;;;;;;;15.40;45.07;96035.09;10319996;28;96741;-66
2022/04/13 19:52:35;;;;;;;4.88;2.13;;;;;;;15.28;45.81;96036.56;10318566;28;97009;-66
2022/04/13 19:57:39;;;;;;;8.32;3.00;;;;;;;15.16;46.50;96043.28;10315394;28;96927;-66
2022/04/13 20:02:42;;;;;;;6.07;2.73;;;;;;;14.84;48.27;96055.75;10319796;28;97991;-65
2022/04/13 20:07:51;;;;;;;6.43;2.55;;;;;;;14.17;49.45;96052.78;10325979;28;97156;-66
2022/04/13 20:12:56;;;;;;;9.60;2.55;;;;;;;14.22;49.40;96067.22;10316847;28;98526;-66
2022/04/13 20:18:01;;;;;;;5.72;1.98;;;;;;;13.92;50.53;96075.78;10311850;28;97917;-65
2022/04/13 20:23:05;;;;;;;8.50;2.67;;;;;;;13.61;50.74;96073.13;10315876;28;96951;-65
2022/04/13 20:28:09;;;;;;;7.03;2.25;;;;;;;13.57;50.76;96064.78;10317434;28;97155;-65
2022/04/13 20:33:12;;;;;;;8.93;2.43;;;;;;;13.48;51.18;96073.69;10315262;28;98537;-65
2022/04/13 20:38:15;;;;;;;6.70;2.50;;;;;;;13.55;50.40;96082.53;10327716;28;97813;-65
2022/04/13 20:43:19;;;;;;;5.45;2.35;;;;;;;13.54;50.68;96086.13;10324781;28;97005;-65
2022/04/13 20:48:22;;;;;;;5.77;2.13;;;;;;;13.28;51.67;96082.94;10322068;28;97698;-66
2022/04/13 20:53:25;;;;;;;4.72;1.83;;;;;;;13.16;52.12;96085.09;10321718;28;96917;-64
2022/04/13 20:58:29;;;;;;;7.95;3.95;;;;;;;12.86;53.29;96090.03;10315237;28;97405;-65
2022/04/13 21:03:32;;;;;;;6.20;2.40;;;;;;;12.53;54.44;96103.13;10326213;28;97102;-63
2022/04/13 21:08:35;;;;;;;6.25;2.35;;;;;;;12.48;53.98;96098.38;10333204;28;97899;-64
2022/04/13 21:13:40;;;;;;;6.53;2.65;;;;;;;12.61;53.94;96100.53;10324436;28;97170;-66
2022/04/13 21:18:46;;;;;;;5.73;2.30;;;;;;;12.62;53.63;96109.19;10332690;28;96977;-66
2022/04/13 21:23:49;;;;;;;5.88;1.73;;;;;;;12.34;54.19;96104.28;10327341;28;100545;-65
2022/04/13 21:28:53;;;;;;;6.72;2.05;;;;;;;11.95;56.01;96110.06;10314584;28;98050;-66
2022/04/13 21:33:56;;;;;;;6.90;2.53;;;;;;;11.96;55.68;96106.47;10322995;28;96867;-65
2022/04/13 21:38:59;;;;;;;8.57;2.28;;;;;;;11.69;56.88;96116.22;10318434;28;97018;-65
2022/04/13 21:44:04;;;;;;;4.30;1.77;;;;;;;11.27;58.47;96116.94;10324169;28;96878;-65
2022/04/13 21:49:07;;;;;;;9.00;2.50;;;;;;;11.22;58.32;96118.41;10321421;28;96957;-65
2022/04/13 21:54:09;;;;;;;5.57;2.28;;;;;;;11.23;57.92;96123.47;10310262;28;97014;-65
2022/04/13 21:59:14;;;;;;;5.35;2.03;;;;;;;11.35;57.39;96135.34;10317834;28;96754;-65
2022/04/13 22:04:17;;;;;;;5.50;1.77;;;;;;;11.42;56.82;96143.41;10329120;28;98835;-65
2022/04/13 22:09:20;;;;;;;5.32;1.90;;;;;;;11.35;56.50;96145.00;10321131;28;96929;-65
2022/04/13 22:14:24;;;;;;;4.45;2.08;;;;;;;11.34;56.89;96144.16;10324879;28;97715;-65
2022/04/13 22:19:29;;;;;;;6.73;2.07;;;;;;;11.37;55.70;96148.25;10342028;28;96821;-65
2022/04/13 22:24:32;;;;;;;5.57;2.03;;;;;;;11.34;55.94;96141.53;10320814;28;96933;-65
2022/04/13 22:29:36;;;;;;;4.75;1.85;;;;;;;11.28;56.39;96151.78;10313963;28;96679;-65
2022/04/13 22:34:39;;;;;;;7.27;2.10;;;;;;;10.82;58.52;96148.50;10311992;28;96906;-65
2022/04/13 22:39:41;;;;;;;6.60;2.00;;;;;;;10.48;60.16;96157.88;10311767;28;97136;-65
2022/04/13 22:44:47;;;;;;;6.28;2.17;;;;;;;10.48;59.83;96163.09;10322601;28;96997;-65
2022/04/13 22:49:50;;;;;;;5.93;1.80;;;;;;;10.53;59.63;96162.63;10309296;28;96859;-65
2022/04/13 22:54:53;;;;;;;6.13;2.08;;;;;;;10.33;60.09;96165.38;10310914;28;96694;-65
2022/04/13 22:59:57;;;;;;;4.00;2.10;;;;;;;10.38;59.85;96162.34;10310899;28;96824;-65
2022/04/13 23:05:00;;;;;;;5.37;2.40;;;;;;;10.45;60.21;96159.97;10308987;28;96867;-65
2022/04/13 23:10:06;;;;;;;4.93;2.90;;;;;;;10.46;59.19;96165.03;10319003;28;97683;-65
2022/04/13 23:15:10;;;;;;;6.07;2.85;;;;;;;10.38;59.20;96167.56;10326789;28;97035;-64
2022/04/13 23:20:13;;;;;;;4.80;2.00;;;;;;;10.34;59.16;96174.03;10316230;28;96704;-65
2022/04/13 23:25:16;;;;;;;6.07;2.80;;;;;;;10.26;59.97;96161.72;10308798;28;97010;-65
2022/04/13 23:30:20;;;;;;;8.18;2.60;;;;;;;9.91;61.61;96154.66;10308328;28;97315;-65
2022/04/13 23:35:23;;;;;;;7.60;2.20;;;;;;;9.46;63.73;96166.66;10305177;28;98069;-64
2022/04/13 23:40:26;;;;;;;6.35;2.35;;;;;;;9.35;63.86;96170.22;10307941;28;96913;-64
2022/04/13 23:45:31;;;;;;;7.45;2.42;;;;;;;9.39;63.85;96161.16;10309162;28;97008;-64